Time;durP1;ratioP1;P1;durP2;ratioP2;P2;SDS_P1;SDS_P2;PMS_P1;PMS_P2;Temp;Humidity;BMP_temperature;BMP_pressure;BME280_temperature;BME280_humidity;BME280_pressure;Samples;Min_cycle;Max_cycle;Signal;HPM_P1;HPM_P2
2022/02/21 00:01:11;;;;;;;4.77;1.57;;;7.30;1.00;;;;;;5028141;28;20208;-57
2022/02/21 00:03:38;;;;;;;11.27;1.60;;;7.30;1.00;;;;;;5031135;28;20302;-57
2022/02/21 00:06:05;;;;;;;8.87;1.47;;;7.30;1.00;;;;;;5025214;28;20249;-57
2022/02/21 00:08:32;;;;;;;10.27;1.73;;;7.30;1.00;;;;;;5026833;28;20699;-57
2022/02/21 00:10:59;;;;;;;7.63;1.80;;;7.30;1.00;;;;;;5025933;28;20197;-56
2022/02/21 00:13:25;;;;;;;5.53;1.30;;;7.30;1.00;;;;;;5026182;28;20201;-56
2022/02/21 00:15:52;;;;;;;9.67;2.17;;;7.30;1.00;;;;;;5027409;28;20386;-56
2022/02/21 00:18:19;;;;;;;5.67;1.50;;;7.30;99.90;;;;;;5023115;28;20299;-55
2022/02/21 00:20:46;;;;;;;12.47;1.80;;;7.20;99.90;;;;;;5020499;28;20342;-57
2022/02/21 00:23:13;;;;;;;10.17;1.80;;;7.20;99.90;;;;;;5026021;28;20564;-56
2022/02/21 00:25:40;;;;;;;13.03;1.67;;;7.20;3.90;;;;;;5023965;28;20208;-56
2022/02/21 00:28:07;;;;;;;7.20;1.67;;;7.20;99.90;;;;;;5024257;28;20307;-57
2022/02/21 00:30:34;;;;;;;6.27;1.33;;;7.20;99.90;;;;;;5022125;28;20224;-56
2022/02/21 00:33:00;;;;;;;5.40;1.43;;;7.20;99.90;;;;;;5028078;28;20227;-56
2022/02/21 00:35:28;;;;;;;12.73;1.63;;;7.10;99.90;;;;;;5021881;28;20298;-56
2022/02/21 00:37:55;;;;;;;5.03;1.80;;;7.10;99.90;;;;;;5028208;28;20202;-56
2022/02/21 00:40:22;;;;;;;8.10;1.27;;;7.10;1.30;;;;;;5020839;28;20201;-55
2022/02/21 00:42:49;;;;;;;6.00;1.20;;;7.10;99.90;;;;;;5026569;28;20220;-56
2022/02/21 00:45:15;;;;;;;6.93;2.23;;;7.00;86.50;;;;;;5025016;28;20318;-56
2022/02/21 00:47:42;;;;;;;6.83;1.43;;;7.00;1.00;;;;;;5026014;28;20363;-54
2022/02/21 00:50:10;;;;;;;6.50;1.60;;;7.00;1.00;;;;;;5023373;28;20238;-55
2022/02/21 00:52:37;;;;;;;13.03;2.47;;;7.00;1.00;;;;;;5028591;28;20673;-56
2022/02/21 00:55:04;;;;;;;6.23;2.10;;;6.90;1.00;;;;;;5025087;28;20805;-56
2022/02/21 00:57:31;;;;;;;7.40;1.87;;;7.00;1.00;;;;;;5030765;28;20259;-56
2022/02/21 00:59:58;;;;;;;6.93;1.63;;;6.90;99.90;;;;;;5026472;28;20625;-56
2022/02/21 01:02:28;;;;;;;6.90;1.63;;;6.90;99.90;;;;;;5028053;28;20243;-56
2022/02/21 01:04:55;;;;;;;7.17;1.80;;;7.00;99.90;;;;;;5025521;28;20518;-58
2022/02/21 01:07:22;;;;;;;15.53;2.83;;;7.00;1.00;;;;;;5029846;28;20668;-57
2022/02/21 01:09:49;;;;;;;12.70;1.93;;;6.90;1.00;;;;;;5027756;28;20348;-56
2022/02/21 01:12:15;;;;;;;12.67;1.83;;;7.00;1.00;;;;;;5030081;28;20236;-57
2022/02/21 01:14:43;;;;;;;9.70;1.70;;;6.90;1.00;;;;;;5024565;28;20197;-57
2022/02/21 01:17:10;;;;;;;7.03;2.00;;;6.90;1.00;;;;;;5030960;28;20246;-56
2022/02/21 01:19:37;;;;;;;13.67;1.90;;;6.90;1.00;;;;;;5029070;28;20275;-56
2022/02/21 01:22:05;;;;;;;10.30;2.00;;;6.90;1.00;;;;;;5024114;28;20606;-58
2022/02/21 01:24:31;;;;;;;8.60;2.00;;;6.90;1.00;;;;;;5029489;28;20282;-57
2022/02/21 01:26:58;;;;;;;13.83;2.77;;;6.90;1.00;;;;;;5027147;28;20224;-56
2022/02/21 01:29:26;;;;;;;5.60;1.60;;;6.80;1.00;;;;;;5021760;28;20624;-56
2022/02/21 01:31:55;;;;;;;11.17;1.93;;;6.80;1.00;;;;;;5024646;28;20716;-56
2022/02/21 01:34:22;;;;;;;7.67;1.40;;;6.80;1.00;;;;;;5024974;28;20786;-56
2022/02/21 01:36:49;;;;;;;11.80;1.90;;;6.80;99.90;;;;;;5026032;28;21103;-55
2022/02/21 01:39:16;;;;;;;6.70;1.80;;;6.80;1.00;;;;;;5029060;28;20681;-57
2022/02/21 01:41:43;;;;;;;11.83;1.93;;;6.80;99.90;;;;;;5024475;28;20205;-58
2022/02/21 01:44:12;;;;;;;13.70;2.30;;;6.80;1.00;;;;;;5025455;28;20200;-57
2022/02/21 01:46:41;;;;;;;9.93;1.83;;;6.70;1.00;;;;;;5023939;28;20566;-57
2022/02/21 01:49:10;;;;;;;6.77;1.43;;;6.60;1.00;;;;;;5025175;28;20740;-56
2022/02/21 01:51:37;;;;;;;5.80;1.60;;;6.40;1.00;;;;;;5024230;28;20599;-57
2022/02/21 01:54:10;;;;;;;8.83;1.70;;;6.40;99.90;;;;;;5024400;28;20224;-56
2022/02/21 01:56:37;;;;;;;6.67;1.63;;;6.40;99.90;;;;;;5024939;28;20713;-56
2022/02/21 01:59:04;;;;;;;9.90;1.63;;;6.40;1.00;;;;;;5029529;28;20208;-57
2022/02/21 02:01:32;;;;;;;10.13;2.07;;;6.40;1.00;;;;;;5025839;28;20223;-57
2022/02/21 02:04:00;;;;;;;6.73;1.80;;;6.40;1.00;;;;;;5026188;28;20603;-55
2022/02/21 02:06:29;;;;;;;6.37;1.37;;;6.40;1.00;;;;;;5026147;28;20204;-57
2022/02/21 02:08:58;;;;;;;7.87;1.43;;;6.40;1.00;;;;;;5021343;28;20270;-57
2022/02/21 02:11:26;;;;;;;7.07;2.83;;;6.30;99.90;;;;;;5020102;28;20279;-56
2022/02/21 02:13:53;;;;;;;9.57;1.63;;;6.40;1.00;;;;;;5023890;28;20211;-59
2022/02/21 02:16:20;;;;;;;5.83;1.53;;;6.30;1.00;;;;;;5022376;28;20192;-57
2022/02/21 02:18:47;;;;;;;9.30;1.60;;;6.40;99.90;;;;;;5020098;28;20216;-56
2022/02/21 02:21:28;;;;;;;5.90;1.20;;;6.30;1.00;;;;;;5027265;28;20710;-56
2022/02/21 02:23:56;;;;;;;8.33;1.87;;;6.30;1.00;;;;;;5020732;28;20296;-56
2022/02/21 02:26:23;;;;;;;8.13;1.50;;;6.30;1.00;;;;;;5019493;28;20656;-56
2022/02/21 02:28:51;;;;;;;6.83;1.30;;;6.40;1.00;;;;;;5022370;28;20243;-54
2022/02/21 02:31:19;;;;;;;7.43;1.20;;;6.40;99.90;;;;;;5019167;28;20577;-57
2022/02/21 02:33:46;;;;;;;5.43;1.40;;;6.40;99.90;;;;;;5013975;28;20212;-56
2022/02/21 02:36:13;;;;;;;6.37;1.47;;;6.20;99.90;;;;;;5020008;28;20710;-56
2022/02/21 02:38:40;;;;;;;6.63;1.60;;;6.20;1.00;;;;;;5022486;28;20205;-55
2022/02/21 02:41:11;;;;;;;5.80;1.67;;;6.30;1.00;;;;;;5020529;28;20302;-57
2022/02/21 02:43:39;;;;;;;6.43;1.40;;;6.30;99.90;;;;;;5020707;28;20208;-56
2022/02/21 02:46:06;;;;;;;11.03;2.00;;;6.30;1.00;;;;;;5023149;28;20204;-55
2022/02/21 02:48:33;;;;;;;10.60;1.93;;;6.30;1.00;;;;;;5025390;28;20314;-56
2022/02/21 02:51:00;;;;;;;8.67;1.83;;;6.30;1.00;;;;;;5022143;28;20313;-55
2022/02/21 02:53:28;;;;;;;4.77;1.70;;;6.30;1.00;;;;;;5022519;28;20291;-55
2022/02/21 02:55:56;;;;;;;12.93;1.53;;;6.30;1.00;;;;;;5028107;28;20256;-57
2022/02/21 02:58:23;;;;;;;10.50;2.20;;;6.30;1.00;;;;;;5019739;28;20232;-55
2022/02/21 03:00:51;;;;;;;6.33;1.20;;;6.40;1.00;;;;;;5024306;28;20310;-56
2022/02/21 03:03:18;;;;;;;10.23;2.03;;;6.30;1.00;;;;;;5024663;28;20258;-55
2022/02/21 03:05:45;;;;;;;10.80;1.77;;;6.40;1.00;;;;;;5025998;28;20225;-56
2022/02/21 03:08:12;;;;;;;7.90;1.70;;;6.30;1.00;;;;;;5028488;28;20283;-55
2022/02/21 03:10:39;;;;;;;7.93;1.30;;;6.30;1.00;;;;;;5026667;28;20328;-55
2022/02/21 03:13:06;;;;;;;6.60;1.67;;;6.20;99.90;;;;;;5027114;28;20350;-56
2022/02/21 03:15:33;;;;;;;8.83;2.37;;;6.30;1.00;;;;;;5029789;28;20250;-56
2022/02/21 03:17:59;;;;;;;7.60;1.93;;;6.30;1.00;;;;;;5024020;28;20211;-55
2022/02/21 03:20:26;;;;;;;4.30;1.20;;;6.30;1.00;;;;;;5040861;28;20283;-56
2022/02/21 03:22:53;;;;;;;8.60;1.63;;;6.20;99.90;;;;;;5026913;28;20242;-56
2022/02/21 03:25:20;;;;;;;6.93;1.73;;;6.10;99.90;;;;;;5029912;28;20596;-56
2022/02/21 03:27:47;;;;;;;8.90;2.23;;;6.10;99.90;;;;;;5030442;28;20653;-58
2022/02/21 03:30:14;;;;;;;10.93;1.83;;;6.10;99.90;;;;;;5027707;28;20873;-56
2022/02/21 03:32:41;;;;;;;9.87;1.67;;;6.10;1.00;;;;;;5026595;28;20221;-56
2022/02/21 03:35:08;;;;;;;10.33;1.83;;;6.20;99.90;;;;;;5026046;28;20299;-56
2022/02/21 03:37:35;;;;;;;7.67;1.60;;;6.10;99.90;;;;;;5029829;28;20275;-55
2022/02/21 03:40:07;;;;;;;10.43;2.30;;;6.10;1.00;;;;;;5025024;28;20254;-56
2022/02/21 03:42:34;;;;;;;12.33;1.90;;;6.10;97.80;;;;;;5029195;28;20236;-55
2022/02/21 03:45:03;;;;;;;6.90;1.87;;;6.10;1.00;;;;;;5030633;28;20220;-56
2022/02/21 03:47:30;;;;;;;17.60;3.03;;;6.00;99.90;;;;;;5026713;28;20206;-55
2022/02/21 03:49:56;;;;;;;12.57;1.90;;;5.70;13.00;;;;;;5024231;28;20266;-57
2022/02/21 03:52:24;;;;;;;12.40;2.47;;;5.80;45.30;;;;;;5025059;28;20559;-55
2022/02/21 03:54:50;;;;;;;9.73;2.17;;;5.90;1.00;;;;;;5026492;28;20250;-57
2022/02/21 03:57:17;;;;;;;8.73;1.90;;;5.90;99.90;;;;;;5025737;28;20217;-57
2022/02/21 03:59:44;;;;;;;6.73;1.40;;;5.90;58.00;;;;;;5023624;28;20236;-56
2022/02/21 04:02:11;;;;;;;13.23;2.30;;;6.00;1.00;;;;;;5024131;28;20397;-56
2022/02/21 04:04:38;;;;;;;8.47;1.70;;;6.10;1.00;;;;;;5027505;28;20208;-57
2022/02/21 04:07:05;;;;;;;10.23;2.30;;;6.00;99.90;;;;;;5024266;28;20627;-57
2022/02/21 04:09:32;;;;;;;7.80;1.90;;;6.10;1.00;;;;;;5026648;28;21374;-56
2022/02/21 04:11:58;;;;;;;10.67;1.80;;;6.10;99.90;;;;;;5027403;28;20211;-57
2022/02/21 04:14:25;;;;;;;5.80;1.50;;;6.10;1.00;;;;;;5027857;28;20253;-56
2022/02/21 04:16:52;;;;;;;6.30;1.30;;;6.00;1.00;;;;;;5027621;28;20257;-57
2022/02/21 04:19:22;;;;;;;11.43;2.07;;;6.00;1.00;;;;;;5025644;28;20449;-55
2022/02/21 04:21:49;;;;;;;7.93;1.50;;;6.00;1.00;;;;;;5028643;28;20739;-57
2022/02/21 04:24:16;;;;;;;7.80;1.90;;;6.00;99.90;;;;;;5023843;28;20636;-55
2022/02/21 04:26:43;;;;;;;9.23;1.73;;;5.80;1.00;;;;;;5028651;28;20204;-55
2022/02/21 04:29:10;;;;;;;8.63;1.93;;;5.80;1.00;;;;;;5024729;28;20275;-55
2022/02/21 04:31:37;;;;;;;8.63;1.70;;;5.80;1.00;;;;;;5026234;28;20266;-54
2022/02/21 04:34:03;;;;;;;11.00;1.73;;;5.80;1.00;;;;;;5027021;28;20286;-58
2022/02/21 04:36:34;;;;;;;6.17;2.03;;;5.70;1.00;;;;;;5025446;28;20222;-55
2022/02/21 04:39:01;;;;;;;5.43;2.03;;;5.70;99.90;;;;;;5026631;28;20209;-55
2022/02/21 04:41:28;;;;;;;7.97;1.40;;;5.70;1.00;;;;;;5026025;28;20292;-57
2022/02/21 04:43:55;;;;;;;5.47;1.80;;;5.80;10.40;;;;;;5022972;28;20292;-56
2022/02/21 04:46:22;;;;;;;8.33;1.63;;;5.70;1.00;;;;;;5025603;28;20219;-57
2022/02/21 04:48:49;;;;;;;6.67;1.50;;;5.70;1.00;;;;;;5023094;28;20217;-57
2022/02/21 04:51:16;;;;;;;5.30;1.73;;;5.70;34.70;;;;;;5024259;28;20218;-57
2022/02/21 04:53:43;;;;;;;8.43;1.93;;;5.60;99.90;;;;;;5023377;28;20207;-56
2022/02/21 04:56:10;;;;;;;7.17;1.73;;;5.70;1.00;;;;;;5024703;28;20240;-56
2022/02/21 04:58:37;;;;;;;6.63;1.90;;;5.70;1.00;;;;;;5026247;28;20292;-57
2022/02/21 05:01:03;;;;;;;5.60;1.33;;;5.60;99.90;;;;;;5022368;28;20246;-58
2022/02/21 05:03:30;;;;;;;6.47;1.63;;;5.60;1.00;;;;;;5024528;28;20402;-55
2022/02/21 05:05:57;;;;;;;7.70;2.00;;;5.60;1.00;;;;;;5021832;28;20623;-56
2022/02/21 05:08:26;;;;;;;7.27;1.77;;;5.60;1.00;;;;;;5024019;28;20223;-57
2022/02/21 05:10:54;;;;;;;4.57;1.17;;;5.70;1.00;;;;;;5024049;28;20220;-56
2022/02/21 05:13:21;;;;;;;7.03;1.60;;;5.70;1.00;;;;;;5020947;28;20212;-56
2022/02/21 05:15:48;;;;;;;5.37;1.20;;;5.70;1.00;;;;;;5024376;28;20200;-54
2022/02/21 05:18:14;;;;;;;10.17;2.53;;;5.70;99.90;;;;;;5010051;28;20238;-56
2022/02/21 05:20:41;;;;;;;12.17;1.83;;;5.60;28.80;;;;;;5021334;28;20201;-55
2022/02/21 05:23:08;;;;;;;6.20;1.83;;;5.70;99.90;;;;;;5026109;28;20205;-57
2022/02/21 05:25:35;;;;;;;12.13;1.97;;;5.70;1.00;;;;;;5022816;28;20207;-55
2022/02/21 05:28:02;;;;;;;9.33;2.40;;;5.70;1.00;;;;;;5026440;28;20207;-55
2022/02/21 05:30:29;;;;;;;3.83;1.30;;;5.70;1.00;;;;;;5021599;28;20222;-56
2022/02/21 05:32:56;;;;;;;6.77;2.47;;;5.70;1.00;;;;;;5026064;28;20189;-56
2022/02/21 05:35:23;;;;;;;7.53;1.67;;;5.70;99.90;;;;;;5019379;28;20304;-56
2022/02/21 05:37:50;;;;;;;7.00;1.77;;;5.60;1.00;;;;;;5023857;28;20202;-56
2022/02/21 05:40:16;;;;;;;8.00;1.40;;;5.60;1.00;;;;;;5039159;28;20219;-56
2022/02/21 05:42:43;;;;;;;4.17;1.40;;;5.70;1.00;;;;;;5036111;28;20301;-55
2022/02/21 05:45:10;;;;;;;4.60;1.40;;;5.70;1.00;;;;;;5024362;28;20255;-55
2022/02/21 05:47:37;;;;;;;6.80;1.70;;;5.80;90.00;;;;;;5022984;28;20509;-57
2022/02/21 05:50:05;;;;;;;9.57;1.77;;;5.70;1.00;;;;;;5021517;28;20526;-58
2022/02/21 05:52:31;;;;;;;12.27;1.83;;;5.70;99.90;;;;;;5023628;28;20294;-57
2022/02/21 05:54:58;;;;;;;7.10;1.80;;;5.70;1.00;;;;;;5023434;28;20245;-56
2022/02/21 05:57:29;;;;;;;4.37;1.20;;;5.70;99.90;;;;;;5028042;28;20201;-58
2022/02/21 05:59:56;;;;;;;11.57;1.97;;;5.60;1.00;;;;;;5013175;28;20246;-57
2022/02/21 06:02:23;;;;;;;12.00;1.67;;;5.60;1.00;;;;;;5024477;28;20229;-56
2022/02/21 06:04:50;;;;;;;7.70;2.13;;;5.60;99.90;;;;;;5024065;28;20206;-55
2022/02/21 06:07:18;;;;;;;8.20;1.90;;;5.70;1.00;;;;;;5026526;28;20335;-56
2022/02/21 06:09:45;;;;;;;4.83;1.10;;;5.60;99.90;;;;;;5024000;28;21497;-57
2022/02/21 06:12:12;;;;;;;5.70;1.60;;;5.60;99.90;;;;;;5024891;28;20363;-56
2022/02/21 06:14:39;;;;;;;7.23;1.70;;;5.60;1.00;;;;;;5027055;28;20204;-56
2022/02/21 06:17:06;;;;;;;5.27;1.70;;;5.60;1.00;;;;;;5029129;28;20201;-56
2022/02/21 06:19:33;;;;;;;7.10;1.57;;;5.60;1.00;;;;;;5025214;28;20205;-55
2022/02/21 06:22:02;;;;;;;5.67;2.00;;;5.60;1.00;;;;;;5024868;28;20747;-56
2022/02/21 06:24:28;;;;;;;6.37;1.30;;;5.50;1.00;;;;;;5027985;28;20632;-56
2022/02/21 06:26:55;;;;;;;7.87;1.40;;;5.50;1.00;;;;;;5029296;28;20270;-56
2022/02/21 06:29:22;;;;;;;8.10;1.97;;;5.50;66.80;;;;;;5024419;28;20214;-54
2022/02/21 06:31:49;;;;;;;8.97;1.37;;;5.50;99.90;;;;;;5022433;28;20199;-55
2022/02/21 06:34:16;;;;;;;11.47;1.97;;;5.40;1.00;;;;;;5024266;28;20469;-55
2022/02/21 06:36:42;;;;;;;4.53;1.57;;;5.50;1.00;;;;;;5023731;28;20213;-56
2022/02/21 06:39:09;;;;;;;10.63;1.97;;;5.40;1.00;;;;;;5022332;28;20211;-56
2022/02/21 06:41:36;;;;;;;11.83;1.80;;;5.50;1.00;;;;;;5027646;28;20263;-56
2022/02/21 06:44:03;;;;;;;5.70;1.23;;;5.50;1.00;;;;;;5021101;28;20215;-56
2022/02/21 06:46:30;;;;;;;9.60;1.33;;;5.50;99.90;;;;;;5018547;28;20678;-56
2022/02/21 06:48:57;;;;;;;8.93;2.27;;;5.60;99.90;;;;;;5017042;28;20221;-56
2022/02/21 06:51:24;;;;;;;10.27;1.40;;;5.50;1.00;;;;;;5020286;28;20218;-56
2022/02/21 06:53:51;;;;;;;7.83;1.50;;;5.50;99.90;;;;;;5014428;28;20290;-55
2022/02/21 06:56:20;;;;;;;3.93;1.50;;;5.50;1.00;;;;;;5025227;28;20630;-56
2022/02/21 06:58:47;;;;;;;6.53;1.10;;;5.50;1.40;;;;;;5008887;28;20206;-54
2022/02/21 07:01:14;;;;;;;10.13;2.07;;;5.50;40.20;;;;;;5015820;28;20252;-56
2022/02/21 07:03:41;;;;;;;9.60;1.60;;;5.50;1.00;;;;;;5023847;28;20288;-56
2022/02/21 07:06:09;;;;;;;8.20;1.70;;;5.50;99.90;;;;;;5021014;28;20232;-57
2022/02/21 07:08:37;;;;;;;6.33;1.40;;;5.40;99.90;;;;;;5033684;28;20232;-57
2022/02/21 07:11:05;;;;;;;6.90;1.27;;;5.50;1.00;;;;;;5013396;28;20223;-57
2022/02/21 07:13:31;;;;;;;7.50;1.43;;;5.50;99.90;;;;;;5030170;28;20234;-55
2022/02/21 07:15:58;;;;;;;11.93;1.77;;;5.50;1.00;;;;;;5024497;28;20207;-55
2022/02/21 07:18:25;;;;;;;12.27;1.60;;;5.50;1.00;;;;;;5026907;28;20213;-55
2022/02/21 07:20:57;;;;;;;11.83;1.90;;;5.50;1.00;;;;;;5024632;28;20633;-56
2022/02/21 07:23:24;;;;;;;8.17;1.77;;;5.50;1.00;;;;;;5028275;28;20674;-55
2022/02/21 07:25:50;;;;;;;10.30;1.73;;;5.50;99.90;;;;;;5027005;28;20586;-54
2022/02/21 07:28:17;;;;;;;7.30;1.83;;;5.60;1.00;;;;;;5026086;28;20267;-55
2022/02/21 07:30:44;;;;;;;12.33;1.83;;;5.60;10.50;;;;;;5027559;28;20216;-54
2022/02/21 07:33:11;;;;;;;7.77;1.93;;;5.60;1.00;;;;;;5024640;28;20199;-54
2022/02/21 07:35:38;;;;;;;6.27;1.70;;;5.60;99.90;;;;;;5023990;28;20657;-54
2022/02/21 07:38:05;;;;;;;7.87;1.77;;;5.60;1.00;;;;;;5021151;28;20197;-56
2022/02/21 07:40:32;;;;;;;8.60;2.03;;;5.50;99.90;;;;;;5019081;28;20199;-56
2022/02/21 07:42:59;;;;;;;6.97;1.70;;;5.40;1.00;;;;;;5025380;28;20305;-56
2022/02/21 07:45:26;;;;;;;6.47;1.97;;;5.40;1.00;;;;;;5025963;28;20249;-53
2022/02/21 07:47:56;;;;;;;4.60;1.63;;;5.40;1.00;;;;;;5022972;28;20234;-56
2022/02/21 07:50:25;;;;;;;8.30;1.80;;;5.40;1.00;;;;;;5040427;28;20331;-57
2022/02/21 07:52:55;;;;;;;6.33;2.30;;;5.40;1.00;;;;;;5025260;28;20203;-55
2022/02/21 07:55:25;;;;;;;6.30;1.57;;;5.50;99.90;;;;;;5028835;28;20225;-56
2022/02/21 07:57:52;;;;;;;3.30;1.30;;;5.50;99.90;;;;;;5025161;28;20206;-56
2022/02/21 08:00:20;;;;;;;8.53;2.10;;;5.60;99.90;;;;;;5021929;28;21191;-55
2022/02/21 08:02:48;;;;;;;6.00;1.07;;;5.70;1.00;;;;;;5027606;28;20198;-56
2022/02/21 08:05:16;;;;;;;1.73;1.20;;;5.70;1.00;;;;;;5019114;28;20662;-55
2022/02/21 08:07:44;;;;;;;6.40;1.50;;;5.70;99.90;;;;;;5025713;28;20205;-55
2022/02/21 08:10:12;;;;;;;5.63;1.40;;;5.80;1.00;;;;;;5028062;28;20259;-56
2022/02/21 08:12:39;;;;;;;6.03;1.70;;;5.80;99.90;;;;;;5032515;28;20204;-56
2022/02/21 08:15:06;;;;;;;9.37;1.97;;;5.90;1.00;;;;;;5026482;28;20206;-56
2022/02/21 08:17:41;;;;;;;10.47;2.00;;;6.10;1.00;;;;;;5023639;28;20726;-55
2022/02/21 08:20:12;;;;;;;7.93;1.60;;;6.20;92.00;;;;;;5023218;28;20210;-55
2022/02/21 08:22:39;;;;;;;12.30;1.80;;;6.10;99.90;;;;;;5016357;28;20287;-55
2022/02/21 08:25:07;;;;;;;3.70;1.33;;;6.00;1.00;;;;;;5021496;28;20257;-56
2022/02/21 08:27:41;;;;;;;6.87;1.83;;;6.00;1.00;;;;;;5022696;28;20284;-59
2022/02/21 08:30:14;;;;;;;5.20;1.80;;;6.00;99.90;;;;;;5022430;28;20301;-60
2022/02/21 08:32:41;;;;;;;9.47;2.10;;;5.90;1.00;;;;;;5019148;28;20202;-57
2022/02/21 08:35:09;;;;;;;4.60;1.20;;;5.90;99.90;;;;;;5024766;28;20252;-61
2022/02/21 08:37:36;;;;;;;4.33;1.27;;;5.80;91.10;;;;;;5024330;28;20203;-60
2022/02/21 08:40:09;;;;;;;5.07;0.93;;;5.80;99.90;;;;;;5020614;28;20206;-60
2022/02/21 08:42:36;;;;;;;5.73;1.77;;;5.70;1.00;;;;;;5022253;28;20558;-61
2022/02/21 08:45:05;;;;;;;11.30;1.93;;;5.60;1.00;;;;;;5025760;28;20209;-60
2022/02/21 08:47:32;;;;;;;5.23;1.80;;;5.60;1.00;;;;;;5043465;28;20381;-63
2022/02/21 08:49:59;;;;;;;8.17;1.80;;;5.50;1.00;;;;;;5022850;28;20223;-61
2022/02/21 08:52:26;;;;;;;7.87;1.47;;;5.50;1.00;;;;;;5022638;28;20193;-61
2022/02/21 08:54:54;;;;;;;5.97;1.30;;;5.40;46.80;;;;;;5025349;28;20324;-57
2022/02/21 08:57:22;;;;;;;7.33;1.63;;;5.40;99.90;;;;;;5023711;28;20434;-61
2022/02/21 08:59:50;;;;;;;6.00;1.67;;;5.30;1.00;;;;;;5018796;28;20323;-61
2022/02/21 09:02:18;;;;;;;8.23;2.07;;;5.30;99.90;;;;;;5021854;28;20840;-59
2022/02/21 09:05:05;;;;;;;5.70;1.70;;;5.20;1.00;;;;;;5027952;28;20209;-60
2022/02/21 09:07:32;;;;;;;8.00;2.17;;;5.20;1.00;;;;;;5020311;28;20296;-64
2022/02/21 09:09:59;;;;;;;9.37;1.67;;;5.10;1.00;;;;;;5020371;28;20616;-61
2022/02/21 09:12:27;;;;;;;5.13;2.47;;;5.10;1.00;;;;;;5024281;28;20716;-61
2022/02/21 09:14:56;;;;;;;7.73;1.87;;;5.00;1.00;;;;;;5029474;28;20211;-61
2022/02/21 09:17:23;;;;;;;5.90;1.53;;;5.00;1.00;;;;;;5019028;28;20213;-61
2022/02/21 09:19:50;;;;;;;7.63;1.70;;;4.90;81.10;;;;;;5024591;28;20223;-62
2022/02/21 09:22:17;;;;;;;11.93;2.07;;;4.80;99.90;;;;;;5025244;28;21222;-62
2022/02/21 09:24:44;;;;;;;8.77;1.77;;;4.70;99.90;;;;;;5019218;28;20217;-60
2022/02/21 09:27:11;;;;;;;7.13;1.67;;;4.60;99.90;;;;;;5020476;28;20292;-61
2022/02/21 09:29:38;;;;;;;4.97;1.67;;;4.50;99.90;;;;;;5021875;28;20220;-60
2022/02/21 09:32:05;;;;;;;7.77;2.20;;;4.40;99.90;;;;;;5024088;28;20250;-62
2022/02/21 09:34:32;;;;;;;8.33;2.00;;;4.40;99.90;;;;;;5023523;28;20282;-62
2022/02/21 09:36:59;;;;;;;10.93;2.00;;;4.30;99.90;;;;;;5019275;28;20209;-63
2022/02/21 09:39:25;;;;;;;9.57;2.20;;;4.40;99.90;;;;;;5022501;28;20209;-62
2022/02/21 09:41:54;;;;;;;6.83;2.20;;;4.40;99.90;;;;;;5030729;28;20208;-61
2022/02/21 09:44:21;;;;;;;5.23;1.60;;;4.40;99.90;;;;;;5021646;28;20296;-62
2022/02/21 09:46:49;;;;;;;17.83;3.20;;;4.40;99.90;;;;;;5028752;28;20564;-61
2022/02/21 09:49:18;;;;;;;8.50;2.57;;;4.50;99.90;;;;;;5025389;28;20304;-60
2022/02/21 09:51:45;;;;;;;7.83;1.57;;;4.60;99.90;;;;;;5024663;28;20781;-62
2022/02/21 09:54:14;;;;;;;10.27;2.30;;;4.60;99.90;;;;;;5021860;28;20265;-61
2022/02/21 09:56:42;;;;;;;6.23;2.10;;;4.60;99.90;;;;;;5032301;28;20194;-62
2022/02/21 09:59:10;;;;;;;7.97;2.10;;;4.70;99.90;;;;;;5026905;28;20235;-61
2022/02/21 10:01:40;;;;;;;14.83;2.17;;;4.70;99.90;;;;;;5030776;28;20208;-61
2022/02/21 10:04:11;;;;;;;7.03;1.67;;;4.70;99.90;;;;;;5025917;28;20205;-56
2022/02/21 10:06:38;;;;;;;11.50;2.27;;;4.80;99.90;;;;;;5028628;28;20218;-55
2022/02/21 10:09:12;;;;;;;8.07;2.53;;;4.80;99.90;;;;;;5029933;28;20332;-56
2022/02/21 10:11:40;;;;;;;11.50;1.90;;;4.80;99.90;;;;;;5033625;28;20322;-56
2022/02/21 10:14:11;;;;;;;7.87;2.33;;;4.80;99.90;;;;;;5031204;28;20196;-56
2022/02/21 10:16:43;;;;;;;8.77;1.97;;;4.80;99.90;;;;;;5032897;28;20641;-56
2022/02/21 10:19:20;;;;;;;9.27;2.50;;;4.80;99.90;;;;;;5033063;28;20204;-56
2022/02/21 10:21:57;;;;;;;6.93;2.03;;;4.80;99.90;;;;;;5030076;28;20301;-56
2022/02/21 10:24:25;;;;;;;13.30;2.13;;;4.90;99.90;;;;;;5031954;28;20628;-56
2022/02/21 10:26:53;;;;;;;8.30;1.80;;;4.90;99.90;;;;;;5036868;28;20282;-54
2022/02/21 10:29:20;;;;;;;12.97;1.90;;;4.90;99.90;;;;;;5036134;28;20204;-55
2022/02/21 10:31:47;;;;;;;8.63;1.90;;;4.90;99.90;;;;;;5034941;28;20227;-55
2022/02/21 10:34:34;;;;;;;10.17;2.73;;;4.90;99.90;;;;;;5031332;28;20199;-56
2022/02/21 10:37:03;;;;;;;10.40;2.73;;;4.90;99.90;;;;;;5033327;28;20203;-56
2022/02/21 10:39:31;;;;;;;4.17;1.77;;;4.90;99.90;;;;;;5030571;28;20209;-56
2022/02/21 10:41:59;;;;;;;6.60;1.23;;;4.80;99.90;;;;;;5032304;28;20215;-57
2022/02/21 10:44:30;;;;;;;9.87;1.80;;;4.80;99.90;;;;;;5034938;28;20206;-54
2022/02/21 10:47:17;;;;;;;12.33;2.30;;;4.80;99.90;;;;;;5030631;28;20205;-55
2022/02/21 10:50:00;;;;;;;6.00;1.63;;;4.80;99.90;;;;;;5048192;28;20644;-54
2022/02/21 10:52:31;;;;;;;5.73;1.67;;;4.80;99.90;;;;;;5029587;28;20293;-56
2022/02/21 10:54:58;;;;;;;13.00;2.17;;;4.80;99.90;;;;;;5025272;28;20688;-56
2022/02/21 10:57:27;;;;;;;14.53;2.40;;;4.90;99.90;;;;;;5033408;28;20200;-54
2022/02/21 10:59:56;;;;;;;11.63;2.17;;;4.90;99.90;;;;;;5034484;28;20201;-56
2022/02/21 11:02:23;;;;;;;9.10;2.10;;;5.00;99.90;;;;;;5032462;28;20705;-56
2022/02/21 11:04:54;;;;;;;10.97;2.03;;;5.00;99.90;;;;;;5032632;28;20193;-55
2022/02/21 11:07:21;;;;;;;13.43;2.87;;;5.10;99.90;;;;;;5029395;28;20208;-56
2022/02/21 11:09:49;;;;;;;11.57;1.93;;;5.10;99.90;;;;;;5031527;28;20353;-55
2022/02/21 11:12:20;;;;;;;10.50;2.27;;;5.10;99.90;;;;;;5032903;28;20200;-56
2022/02/21 11:14:48;;;;;;;14.67;2.77;;;5.20;99.90;;;;;;5035365;28;20424;-57
2022/02/21 11:17:15;;;;;;;11.90;2.13;;;5.20;99.90;;;;;;5031755;28;20197;-56
2022/02/21 11:19:43;;;;;;;10.03;3.30;;;5.30;99.90;;;;;;5035020;28;20250;-54
2022/02/21 11:22:11;;;;;;;20.17;3.53;;;5.30;99.90;;;;;;5031277;28;20207;-54
2022/02/21 11:25:07;;;;;;;12.63;3.13;;;5.40;99.90;;;;;;5030241;28;20633;-55
2022/02/21 11:27:54;;;;;;;13.47;3.07;;;5.40;99.90;;;;;;5028919;28;20200;-55
2022/02/21 11:30:26;;;;;;;9.93;2.20;;;5.50;99.90;;;;;;5022731;28;20212;-56
2022/02/21 11:33:03;;;;;;;15.70;3.57;;;5.60;99.90;;;;;;5033645;28;20240;-56
2022/02/21 11:35:31;;;;;;;19.40;4.63;;;5.60;99.90;;;;;;5030281;28;20280;-57
2022/02/21 11:38:20;;;;;;;10.07;3.00;;;5.60;99.90;;;;;;5030372;28;20827;-55
2022/02/21 11:40:54;;;;;;;13.17;2.53;;;5.70;99.90;;;;;;5031901;28;20223;-56
2022/02/21 11:43:30;;;;;;;10.93;2.50;;;5.70;99.90;;;;;;5029112;28;20204;-55
2022/02/21 11:46:06;;;;;;;14.67;3.20;;;5.80;99.90;;;;;;5030904;28;20705;-56
2022/02/21 11:48:57;;;;;;;16.27;2.80;;;5.90;99.90;;;;;;5049500;28;20294;-54
2022/02/21 11:51:26;;;;;;;17.90;3.47;;;5.90;99.90;;;;;;5029067;28;20661;-55
2022/02/21 11:53:54;;;;;;;15.53;3.77;;;6.00;99.90;;;;;;5027564;28;20200;-55
2022/02/21 11:56:55;;;;;;;21.27;3.40;;;6.10;99.90;;;;;;5032831;28;20335;-54
2022/02/21 11:59:22;;;;;;;20.10;4.13;;;6.20;99.90;;;;;;5032290;28;20661;-57
2022/02/21 12:02:00;;;;;;;15.93;3.67;;;6.20;99.90;;;;;;5031011;28;20206;-56
2022/02/21 12:04:28;;;;;;;18.53;3.30;;;6.30;99.90;;;;;;5031083;28;20715;-56
2022/02/21 12:06:58;;;;;;;17.47;3.33;;;6.30;99.90;;;;;;5026971;28;20661;-55
2022/02/21 12:09:27;;;;;;;20.47;3.30;;;6.40;99.90;;;;;;5026497;28;20717;-54
2022/02/21 12:12:20;;;;;;;17.90;3.00;;;6.50;99.90;;;;;;5017011;28;20304;-54
2022/02/21 12:15:09;;;;;;;19.23;4.27;;;6.60;99.90;;;;;;5025945;28;20212;-56
2022/02/21 12:17:36;;;;;;;19.97;3.60;;;6.60;99.90;;;;;;5019585;28;20210;-55
2022/02/21 12:20:28;;;;;;;13.57;3.13;;;6.70;99.90;;;;;;5014031;28;20308;-56
2022/02/21 12:23:09;;;;;;;16.53;2.93;;;6.80;99.90;;;;;;5025248;28;20273;-55
2022/02/21 12:25:40;;;;;;;24.37;4.47;;;6.80;99.90;;;;;;5021309;28;20332;-55
2022/02/21 12:28:19;;;;;;;18.73;3.20;;;6.80;99.90;;;;;;5017381;28;20302;-55
2022/02/21 12:30:51;;;;;;;27.77;4.23;;;6.90;99.90;;;;;;5017391;28;20217;-55
2022/02/21 12:33:26;;;;;;;22.07;3.70;;;6.90;99.90;;;;;;5020172;28;20797;-57
2022/02/21 12:36:01;;;;;;;27.23;4.10;;;7.00;99.90;;;;;;5024265;28;20648;-57
2022/02/21 12:38:34;;;;;;;15.90;3.40;;;7.00;99.90;;;;;;5016461;28;20210;-55
2022/02/21 12:41:08;;;;;;;19.13;3.17;;;7.10;99.90;;;;;;5017229;28;20318;-57
2022/02/21 12:44:05;;;;;;;16.27;3.17;;;7.20;99.90;;;;;;5017061;28;20572;-55
2022/02/21 12:46:36;;;;;;;18.53;3.20;;;7.20;99.90;;;;;;5017608;28;20222;-56
2022/02/21 12:49:07;;;;;;;16.03;3.20;;;7.30;99.90;;;;;;5024248;28;20230;-55
2022/02/21 12:51:37;;;;;;;17.23;3.00;;;7.40;99.90;;;;;;5022620;28;20273;-55
2022/02/21 12:54:11;;;;;;;16.23;3.50;;;7.40;99.90;;;;;;5026941;28;20200;-56
2022/02/21 12:56:49;;;;;;;16.77;3.40;;;7.50;99.90;;;;;;5020111;28;20676;-56
2022/02/21 12:59:18;;;;;;;16.00;3.37;;;7.50;99.90;;;;;;5004587;28;21037;-56
2022/02/21 13:01:47;;;;;;;10.00;2.87;;;7.40;99.90;;;;;;5016602;28;20609;-57
2022/02/21 13:04:14;;;;;;;16.57;2.63;;;7.50;99.90;;;;;;5017767;28;20227;-55
2022/02/21 13:06:41;;;;;;;12.83;2.10;;;7.60;99.90;;;;;;5020124;28;20214;-55